TimeMST,TemperatureF,Dew PointF,Humidity,Sea Level PressureIn,VisibilityMPH,Wind Direction,Wind SpeedMPH,Gust SpeedMPH,PrecipitationIn,Events,Conditions,WindDirDegrees,DateUTC
12:53 AM,6.1,1.0,80,30.17,10.0,ENE,3.5,-,N/A,,Mostly Cloudy,70,2013-02-23 07:53:00
1:53 AM,3.0,-2.0,80,30.18,10.0,Calm,Calm,-,N/A,,Clear,0,2013-02-23 08:53:00
2:53 AM,1.9,-2.0,83,30.14,10.0,NNE,6.9,-,N/A,,Partly Cloudy,30,2013-02-23 09:53:00
3:53 AM,3.0,-2.0,80,30.12,10.0,Calm,Calm,-,N/A,,Partly Cloudy,0,2013-02-23 10:53:00
4:53 AM,1.0,-4.0,79,30.12,10.0,Calm,Calm,-,N/A,,Partly Cloudy,0,2013-02-23 11:53:00
5:53 AM,6.1,1.0,80,30.11,10.0,NE,3.5,-,N/A,,Overcast,50,2013-02-23 12:53:00
6:53 AM,10.0,5.0,80,30.10,10.0,ENE,4.6,-,N/A,,Overcast,60,2013-02-23 13:53:00
7:53 AM,15.1,9.0,77,30.08,10.0,NE,3.5,-,N/A,,Overcast,50,2013-02-23 14:53:00
8:53 AM,21.0,15.1,78,30.06,4.0,NE,3.5,-,0.00,Snow,Light Snow,40,2013-02-23 15:53:00
8:58 AM,21.2,15.8,80,29.88,1.8,Calm,Calm,-,0.00,Snow,Light Snow,0,2013-02-23 15:58:00
9:10 AM,21.2,15.8,80,29.88,3.0,Calm,Calm,-,0.00,Snow,Light Snow,0,2013-02-23 16:10:00
9:45 AM,21.2,17.6,86,29.86,6.0,NNE,6.9,-,0.00,Snow,Light Snow,30,2013-02-23 16:45:00
9:53 AM,21.9,17.1,82,30.01,4.0,NE,6.9,-,0.00,Snow,Light Snow,40,2013-02-23 16:53:00
10:53 AM,25.0,17.1,72,29.97,9.0,NNE,6.9,-,0.00,,Overcast,20,2013-02-23 17:53:00
11:53 AM,24.1,18.0,77,29.92,10.0,WSW,17.3,-,N/A,,Overcast,240,2013-02-23 18:53:00
12:53 PM,28.9,17.1,61,29.87,10.0,SSE,6.9,-,N/A,,Overcast,160,2013-02-23 19:53:00
1:53 PM,30.0,17.1,59,29.82,10.0,Calm,Calm,-,N/A,,Overcast,0,2013-02-23 20:53:00
2:53 PM,32.0,17.1,54,29.81,10.0,SSW,11.5,-,N/A,,Overcast,200,2013-02-23 21:53:00
3:53 PM,30.9,16.0,54,29.81,10.0,SSW,11.5,-,N/A,,Overcast,210,2013-02-23 22:53:00
4:53 PM,28.0,21.0,75,29.85,9.0,SSW,10.4,-,0.00,Snow,Light Snow,210,2013-02-23 23:53:00
5:04 PM,26.6,21.2,80,29.69,1.8,SSW,8.1,-,0.00,Snow,Light Snow,210,2013-02-24 00:04:00
5:12 PM,26.6,23.0,86,29.69,0.8,SSW,5.8,-,0.00,Snow,Light Snow,210,2013-02-24 00:12:00
5:27 PM,26.6,23.0,86,29.70,0.5,SSW,5.8,-,0.00,Fog-Snow,Light Snow,210,2013-02-24 00:27:00
5:53 PM,26.1,23.0,88,29.85,0.5,SSW,3.5,-,0.01,Fog-Snow,Light Snow,210,2013-02-24 00:53:00
6:01 PM,26.6,23.0,86,29.70,1.2,Calm,Calm,-,0.00,Snow,Light Snow,0,2013-02-24 01:01:00
6:10 PM,26.6,23.0,86,29.70,3.0,Calm,Calm,-,0.00,Snow,Light Snow,0,2013-02-24 01:10:00
6:21 PM,26.6,23.0,86,29.70,2.0,Calm,Calm,-,0.00,Snow,Light Snow,0,2013-02-24 01:21:00
6:28 PM,24.8,23.0,93,29.71,1.8,Calm,Calm,-,0.01,Snow,Light Snow,0,2013-02-24 01:28:00
6:46 PM,24.8,23.0,93,29.72,2.0,Calm,Calm,-,0.01,Snow,Light Snow,0,2013-02-24 01:46:00
6:53 PM,25.0,23.0,92,29.85,2.0,Calm,Calm,-,0.01,Snow,Light Snow,0,2013-02-24 01:53:00
7:12 PM,26.6,23.0,86,29.72,1.2,Calm,Calm,-,0.00,Snow,Light Snow,0,2013-02-24 02:12:00
7:19 PM,26.6,23.0,86,29.72,0.8,Calm,Calm,-,0.01,Snow,Light Snow,0,2013-02-24 02:19:00
7:26 PM,26.6,24.8,93,29.72,0.8,Calm,Calm,-,0.01,Snow,Light Snow,0,2013-02-24 02:26:00
7:31 PM,26.6,24.8,93,29.72,1.2,Calm,Calm,-,0.01,Snow,Light Snow,0,2013-02-24 02:31:00
7:41 PM,24.8,23.0,93,29.72,2.0,Calm,Calm,-,0.01,Snow,Light Snow,0,2013-02-24 02:41:00
7:53 PM,25.0,23.0,92,29.83,2.5,Calm,Calm,-,0.01,Snow,Light Snow,0,2013-02-24 02:53:00
8:22 PM,24.8,23.0,93,29.71,2.0,Calm,Calm,-,0.00,Snow,Light Snow,0,2013-02-24 03:22:00
8:36 PM,24.8,21.2,86,29.71,4.0,Calm,Calm,-,0.00,Snow,Light Snow,0,2013-02-24 03:36:00
8:53 PM,24.1,21.9,91,29.80,4.0,Calm,Calm,-,0.00,Snow,Light Snow,0,2013-02-24 03:53:00
9:05 PM,24.8,21.2,86,29.71,1.8,SW,5.8,-,0.00,Snow,Light Snow,220,2013-02-24 04:05:00
9:11 PM,24.8,21.2,86,29.71,1.0,WSW,8.1,-,0.01,Snow,Light Snow,250,2013-02-24 04:11:00
9:13 PM,24.8,21.2,86,29.71,0.8,WNW,11.5,-,0.01,Snow,Light Snow,300,2013-02-24 04:13:00
9:25 PM,21.2,17.6,86,29.72,1.0,NW,13.8,-,0.01,Snow,Light Snow,310,2013-02-24 04:25:00
9:29 PM,21.2,17.6,86,29.72,1.2,NW,13.8,-,0.01,Snow,Light Snow,310,2013-02-24 04:29:00
9:37 PM,21.2,17.6,86,29.73,2.0,WNW,11.5,-,0.01,Snow,Light Snow,300,2013-02-24 04:37:00
9:53 PM,21.9,15.1,75,29.83,7.0,NW,11.5,-,0.01,,Overcast,310,2013-02-24 04:53:00
10:25 PM,21.2,15.8,80,29.74,3.0,WNW,6.9,-,0.00,Snow,Light Snow,290,2013-02-24 05:25:00
10:34 PM,19.4,14.0,80,29.74,1.8,WNW,12.7,-,0.00,Snow,Light Snow,300,2013-02-24 05:34:00
10:53 PM,19.9,14.0,78,29.84,2.5,WNW,10.4,-,0.00,Snow,Light Snow,290,2013-02-24 05:53:00
11:12 PM,19.4,14.0,80,29.74,1.8,NW,8.1,-,0.01,Snow,Light Snow,320,2013-02-24 06:12:00
11:32 PM,19.4,14.0,80,29.73,3.0,NW,10.4,-,0.01,Snow,Light Snow,310,2013-02-24 06:32:00
11:53 PM,19.9,12.9,74,29.84,3.0,NW,9.2,-,0.01,Snow,Light Snow,320,2013-02-24 06:53:00